createdAt,value
2022-12-31T00:12:27.656Z,4.00
2022-12-31T00:35:38.443Z,4.37
2022-12-31T00:41:09.983Z,4.17
2022-12-31T00:52:35.810Z,6.20
2022-12-31T01:03:41.978Z,4.33
2022-12-31T01:09:11.800Z,5.60
2022-12-31T01:14:50.671Z,4.03
2022-12-31T01:20:32.343Z,5.20
2022-12-31T01:31:53.668Z,4.40
2022-12-31T01:48:55.872Z,4.90
2022-12-31T02:06:13.772Z,5.23
2022-12-31T02:11:50.998Z,5.13
2022-12-31T02:41:22.449Z,3.07
2022-12-31T02:46:48.647Z,3.70
2022-12-31T02:59:15.546Z,3.20
2022-12-31T03:04:35.074Z,3.37
2022-12-31T03:10:11.373Z,2.80
2022-12-31T03:15:34.659Z,2.77
2022-12-31T03:21:26.061Z,3.27
2022-12-31T03:38:38.737Z,3.07
2022-12-31T03:44:16.116Z,3.97
2022-12-31T03:55:54.812Z,2.83
2022-12-31T04:01:30.717Z,2.60
2022-12-31T04:07:11.168Z,2.90
2022-12-31T04:12:35.113Z,2.60
2022-12-31T04:18:12.951Z,2.60
2022-12-31T04:23:50.494Z,2.57
2022-12-31T04:29:01.133Z,3.50
2022-12-31T04:34:08.106Z,2.80
2022-12-31T04:39:58.988Z,3.73
2022-12-31T04:56:41.497Z,2.87
2022-12-31T05:14:39.836Z,2.43
2022-12-31T05:20:01.444Z,3.33
2022-12-31T05:25:16.691Z,2.37
2022-12-31T05:36:41.130Z,2.67
2022-12-31T05:42:06.905Z,2.23
2022-12-31T05:53:11.366Z,1.80
2022-12-31T06:20:55.628Z,2.50
2022-12-31T06:26:40.857Z,2.77
2022-12-31T06:31:55.092Z,1.97
2022-12-31T07:00:55.464Z,2.20
2022-12-31T07:06:31.732Z,2.90
2022-12-31T07:12:04.253Z,2.70
2022-12-31T07:17:35.966Z,1.57
2022-12-31T07:23:14.570Z,2.33
2022-12-31T07:28:49.703Z,3.23
2022-12-31T07:45:45.220Z,2.03
2022-12-31T07:50:52.083Z,2.00
2022-12-31T07:56:02.849Z,2.40
2022-12-31T08:01:40.247Z,1.50
2022-12-31T08:07:29.535Z,2.13
2022-12-31T08:12:37.590Z,2.03
2022-12-31T08:17:43.067Z,2.57
2022-12-31T08:23:13.564Z,2.23
2022-12-31T08:28:23.167Z,1.90
2022-12-31T08:33:38.412Z,1.57
2022-12-31T08:39:05.680Z,1.50
2022-12-31T08:44:37.753Z,2.10
2022-12-31T08:49:43.348Z,1.73
2022-12-31T08:55:09.973Z,1.73
2022-12-31T09:00:20.088Z,1.53
2022-12-31T09:05:51.043Z,1.70
2022-12-31T09:11:06.120Z,2.30
2022-12-31T09:16:49.635Z,1.83
2022-12-31T09:21:59.920Z,1.60
2022-12-31T09:27:29.600Z,2.10
2022-12-31T09:33:03.567Z,2.67
2022-12-31T09:38:20.134Z,1.63
2022-12-31T09:43:59.079Z,1.97
2022-12-31T09:49:24.783Z,1.63
2022-12-31T09:54:42.813Z,1.80
2022-12-31T10:00:26.266Z,2.40
2022-12-31T10:05:46.256Z,1.80
2022-12-31T10:10:58.290Z,1.60
2022-12-31T10:16:11.699Z,2.37
2022-12-31T10:21:37.294Z,1.83
2022-12-31T10:27:14.246Z,1.90
2022-12-31T10:32:31.398Z,1.80
2022-12-31T10:43:47.782Z,1.83
2022-12-31T10:49:05.944Z,1.93
2022-12-31T10:54:33.758Z,2.00
2022-12-31T11:00:08.586Z,1.23
2022-12-31T11:05:37.560Z,2.60
2022-12-31T11:10:51.762Z,1.40
2022-12-31T11:16:19.964Z,2.53
2022-12-31T11:21:53.356Z,2.10
2022-12-31T11:27:22.539Z,1.70
2022-12-31T11:32:33.686Z,1.60
2022-12-31T11:38:08.470Z,1.63
2022-12-31T11:43:53.500Z,1.60
2022-12-31T11:49:15.993Z,1.70
2022-12-31T11:54:31.674Z,1.57
2022-12-31T12:05:32.944Z,1.97
2022-12-31T12:16:43.628Z,1.70
2022-12-31T12:21:51.561Z,1.70
2022-12-31T12:33:01.833Z,2.00
2022-12-31T12:38:19.130Z,1.83
2022-12-31T12:43:36.831Z,1.13
2022-12-31T12:49:12.167Z,1.20
2022-12-31T12:54:38.049Z,1.43
2022-12-31T13:00:24.755Z,2.00
2022-12-31T13:05:54.771Z,1.30
2022-12-31T13:11:24.916Z,1.33
2022-12-31T13:17:09.655Z,1.10
2022-12-31T13:22:57.576Z,1.10
2022-12-31T13:28:09.039Z,1.10
2022-12-31T13:33:31.269Z,0.90
2022-12-31T13:38:52.239Z,0.83
2022-12-31T13:44:28.780Z,1.10
2022-12-31T13:50:14.559Z,0.80
2022-12-31T13:55:41.053Z,0.73
2022-12-31T14:01:14.531Z,1.20
2022-12-31T14:06:43.861Z,1.17
2022-12-31T14:18:02.435Z,0.87
2022-12-31T14:23:28.551Z,0.90
2022-12-31T14:29:06.140Z,0.93
2022-12-31T14:34:47.607Z,1.17
2022-12-31T14:40:02.619Z,1.07
2022-12-31T14:45:40.798Z,0.97
2022-12-31T14:50:48.528Z,1.20
2022-12-31T14:56:24.159Z,1.00
2022-12-31T15:01:34.860Z,1.50
2022-12-31T15:06:53.104Z,1.00
2022-12-31T15:12:19.253Z,1.00
2022-12-31T15:17:57.433Z,1.20
2022-12-31T15:23:28.872Z,0.97
2022-12-31T15:28:40.447Z,1.40
2022-12-31T15:34:06.642Z,1.20
2022-12-31T15:39:39.119Z,1.00
2022-12-31T15:44:56.979Z,1.40
2022-12-31T15:50:08.020Z,1.50
2022-12-31T16:01:26.885Z,6.53
2022-12-31T16:06:38.422Z,2.43
2022-12-31T16:11:46.971Z,9.53
2022-12-31T16:17:31.830Z,2.00
2022-12-31T16:22:42.340Z,1.97
2022-12-31T16:27:52.681Z,9.30
2022-12-31T16:33:02.327Z,2.93
2022-12-31T16:38:38.028Z,4.53
2022-12-31T16:43:44.940Z,2.70
2022-12-31T16:48:53.631Z,3.43
2022-12-31T16:54:00.580Z,5.13
2022-12-31T16:59:13.776Z,3.70
2022-12-31T17:04:24.115Z,3.03
2022-12-31T17:09:41.328Z,3.13
2022-12-31T17:14:53.675Z,3.50
2022-12-31T17:20:05.755Z,10.47
2022-12-31T17:25:31.356Z,6.93
2022-12-31T17:36:24.657Z,3.80
2022-12-31T17:41:32.556Z,2.53
2022-12-31T17:46:40.734Z,2.13
2022-12-31T17:57:15.584Z,2.60
2022-12-31T18:02:26.029Z,2.40
2022-12-31T18:07:33.282Z,1.30
2022-12-31T18:19:04.395Z,1.70
2022-12-31T18:24:24.322Z,1.50
2022-12-31T18:41:07.106Z,2.73
2022-12-31T18:46:15.079Z,3.43
2022-12-31T18:51:35.017Z,12.67
2022-12-31T18:56:47.619Z,11.23
2022-12-31T19:01:52.083Z,13.43
2022-12-31T19:07:20.276Z,10.27
2022-12-31T19:18:09.938Z,4.20
2022-12-31T19:23:23.712Z,3.70
2022-12-31T19:28:33.426Z,3.63
2022-12-31T19:33:46.089Z,1.73
2022-12-31T19:39:16.079Z,2.27
2022-12-31T19:44:27.506Z,2.53
2022-12-31T19:49:35.447Z,1.80
2022-12-31T19:54:59.482Z,2.70
2022-12-31T20:00:26.421Z,2.33
2022-12-31T20:05:51.809Z,1.97
2022-12-31T20:11:00.335Z,1.90
2022-12-31T20:16:19.464Z,2.37
2022-12-31T20:22:12.600Z,1.70
2022-12-31T20:27:21.264Z,1.47
2022-12-31T20:32:30.534Z,1.90
2022-12-31T20:37:41.125Z,2.00
2022-12-31T20:42:48.442Z,1.60
2022-12-31T20:47:55.959Z,1.87
2022-12-31T20:58:50.542Z,1.43
2022-12-31T21:04:15.914Z,1.67
2022-12-31T21:09:23.663Z,2.13
2022-12-31T21:14:29.351Z,1.93
2022-12-31T21:19:35.460Z,1.53
2022-12-31T21:24:44.315Z,2.47
2022-12-31T21:35:54.219Z,1.13
2022-12-31T21:41:08.361Z,1.63
2022-12-31T21:51:40.517Z,1.20
2022-12-31T21:57:06.638Z,1.13
2022-12-31T22:02:33.396Z,1.03
2022-12-31T22:07:40.390Z,1.70
2022-12-31T22:12:50.188Z,0.90
2022-12-31T22:17:56.029Z,1.30
2022-12-31T22:24:39.314Z,1.30
2022-12-31T22:28:53.052Z,1.10
2022-12-31T22:34:18.931Z,1.43
2022-12-31T22:39:43.391Z,1.20
2022-12-31T22:44:36.233Z,1.37
2022-12-31T22:50:00.911Z,1.10
2022-12-31T22:55:20.582Z,1.30
2022-12-31T23:00:43.032Z,1.20
2022-12-31T23:05:54.412Z,1.07
2022-12-31T23:11:20.587Z,0.90
2022-12-31T23:22:46.137Z,1.50
2022-12-31T23:27:52.928Z,1.00
2022-12-31T23:32:58.148Z,1.57
2022-12-31T23:38:27.021Z,1.40
2022-12-31T23:43:36.538Z,1.10
2022-12-31T23:48:45.918Z,2.57
2022-12-31T23:54:10.228Z,1.73
2022-12-31T23:59:15.501Z,2.23
